Accueil
METAR-TAF:

METAR-TAF

Aéroports :

Kimmirut, Nunavut, Canada

latitude: 62-51N, longitude: 069-53W, altitude: 53 m

Observation

Le bulletin a été fait il y a 4 heures et 32 minutes, à 21:00 UTC
Vent 5 kt de nord/nord-est
Température -15°C
Humidité 71%
Pression 1002 hPa
Visibilité: 24.1 km
Nuages épars à une hauteur de 3500 ft
Nuages fragmentés à une hauteur de 15000 ft

METAR: CYLC 202100Z 03005KT 15SM SCT035 BKN150 M15/M19 A2958 RMK SC3CI3 -15.0/-18.0/0.0/1 TRACE LOOSE LASTSTFD OBS/NEXT 211300Z SLP024

Heure: 20:32 (01:32 UTC)


TAF: absent

Observations et prévisions météorologiques de plus de 4000 aéroports (messages METAR et TAF).

Les stations disponibles sont représentées par des disques jaunes et rouges sur la carte.

Passer la souris dessus pour voir le nom de la station.

Cliquer dessus pour voir les observations et prévisions météorologiques.

Pour changer de carte: cliquez sur les boutons verts avec une croix noire pour zoomer, sur le bouton vert avec un tiret pour effectuer un zoom arrière, ou sur les flèches vertes pour les cartes adjacentes.


METAR-TAF: